McAlister, NM (88427)

3:18 AM MDT on May 04, 2015 (GMT -0600)
Melrose Gunnery Range | | Change Station
CLOSE
Current Station
Airport
Location: Melrose Gunnery Range,
Elevation: 4350 ft
Nearby Weather Stations

Elev 4350 ft 34.30 °N, 103.80 °W | Updated 22 minutes ago

Partly Cloudy
Partly Cloudy
55 °F
Feels Like 55 °F
N
7
Wind Variable Wind from SE

Today
High -- | Low -- °F
--% Chance of Precip.
Yesterday
High -- | Low -- °F
Precip. -- in
6:01 AM 7:41 PM
Full, 100% visible
Pressure 29.84 in
Visibility 10.0 miles
Clouds Few 9500 ft
Dew Point 48 °F
Humidity 77%
Rainfall 0.00 in
Snow Depth Not available.
UV 0 out of 12
Pollen 7.30 out of 12
Air Quality Not available.
Flu Activity Local Activity
METAR K4MR 040856Z AUTO 13006KT 10SM FEW095 13/09 A3000 RMK AO2 SLP104 T01300091 58002 $

More Conditions Fewer Conditions

Pressure 29.84 in
Visibility 10.0 miles
Clouds Few 9500 ft
Dew Point 48 °F
Humidity 77%
Rainfall 0.00 in
Snow Depth Not available.
UV 0 out of 12
Pollen 7.30 out of 12
Air Quality Not available.
Flu Activity Local Activity
METAR K4MR 040856Z AUTO 13006KT 10SM FEW095 13/09 A3000 RMK AO2 SLP104 T01300091 58002 $

More Conditions Fewer Conditions

Nepal has a long way to go to dig out and rebuild from a devastating earthquake. We have teamed up with several charities and organizations to make contributing to the relief effort as easy as possible.
How you can help: Portlight Strategies | Red Cross
Nowcast | as of 2:15 am MDT on May 4, 2015

Scattered showers and a few short lived thunderstorms will continue to move north to northeast over central and eastern New Mexico. A few cloud to ground lightning strikes...brief moderate to heavy rain and gusty winds will be characteristic of the storms. Some locations which may be impacted include Anton Chico to Gladstone and Elida to Broadview...as well as Duran...Mountainair and Vaughn. In addition... a large area of mostly showers will move into southern Socorro and southwest Lincoln counties before 4 am...and light showers will track over Belen to Albuquerque. Rainfall amounts will be generally one quarter of an inch or less.

×

10-Day Weather Forecast

Almanac

Astronomy

May. 04, 2015 Rise Set
Actual Time
Civil Twilight
Nautical Twilight
Astronomical Twilight
Moon
Length of Visible Light
Length of Day
Tomorrow will be .
, % of the Moon is Illuminated

Today's Extremes

State Highs State Lows

Community

WunderPhotos

Upload Photos

1,818,550 photos uploaded!

WunderBlogs® & News

Nearby

Air Quality

  Air Quality AQ Index Pollutant
Not available.

Snow Depth

Station Depth Elevation

Earthquake Activity

City Distance Mag. Time & Date
Minimum magnitude displayed is 2.5.

Coastal Water Temperatures

Place Temperature

Stations

Nearby Weather Stations

Station Location Temp. Windchill Dew Point Humidity Wind Precip. Elev Updated Type